Time;durP1;ratioP1;P1;durP2;ratioP2;P2;SDS_P1;SDS_P2;PMS_P1;PMS_P2;Temp;Humidity;BMP_temperature;BMP_pressure;BME280_temperature;BME280_humidity;BME280_pressure;Samples;Min_cycle;Max_cycle;Signal;HPM_P1;HPM_P2
2023/06/24 00:01:19;;;;;;;2.58;1.80;;;;;;;;;;4964984;28;20458;-78
2023/06/24 00:03:46;;;;;;;2.40;1.65;;;;;;;;;;4966221;28;20026;-78
2023/06/24 00:06:18;;;;;;;1.90;1.60;;;;;;;;;;4961485;28;20037;-78
2023/06/24 00:08:44;;;;;;;2.42;1.38;;;;;;;;;;4958498;28;20034;-77
2023/06/24 00:11:11;;;;;;;3.33;1.58;;;;;;;;;;4967404;28;20034;-78
2023/06/24 00:13:37;;;;;;;2.05;1.45;;;;;;;;;;4957853;28;20043;-78
2023/06/24 00:16:03;;;;;;;3.55;1.50;;;;;;;;;;4953851;28;20124;-77
2023/06/24 00:18:29;;;;;;;2.53;1.63;;;;;;;;;;4952288;28;20069;-78
2023/06/24 00:20:56;;;;;;;4.03;1.50;;;;;;;;;;4953460;28;20023;-78
2023/06/24 00:23:26;;;;;;;2.05;1.70;;;;;;;;;;4963728;28;20046;-78
2023/06/24 00:25:52;;;;;;;3.78;1.80;;;;;;;;;;4965336;28;20501;-78
2023/06/24 00:28:18;;;;;;;2.40;1.88;;;;;;;;;;4946953;28;20433;-78
2023/06/24 00:30:44;;;;;;;1.83;1.48;;;;;;;;;;4948167;28;20034;-78
2023/06/24 00:33:13;;;;;;;1.85;1.27;;;;;;;;;;4948689;28;20169;-78
2023/06/24 00:35:39;;;;;;;2.63;1.40;;;;;;;;;;4946833;28;20034;-79
2023/06/24 00:38:05;;;;;;;2.55;1.42;;;;;;;;;;4949498;28;20066;-78
2023/06/24 00:40:31;;;;;;;2.03;1.45;;;;;;;;;;4953354;28;20073;-77
2023/06/24 00:42:57;;;;;;;2.17;1.48;;;;;;;;;;4947430;28;20149;-79
2023/06/24 00:45:23;;;;;;;1.80;1.50;;;;;;;;;;4969778;28;20022;-78
2023/06/24 00:47:49;;;;;;;4.70;1.70;;;;;;;;;;4970673;28;20084;-78
2023/06/24 00:50:16;;;;;;;2.70;2.00;;;;;;;;;;4959272;28;20034;-78
2023/06/24 00:52:42;;;;;;;3.10;1.73;;;;;;;;;;4951060;28;20045;-78
2023/06/24 00:55:15;;;;;;;2.35;1.70;;;;;;;;;;4945859;28;20030;-79
2023/06/24 00:57:42;;;;;;;2.33;1.83;;;;;;;;;;4969591;28;20121;-79
2023/06/24 01:00:11;;;;;;;1.83;1.52;;;;;;;;;;4962105;28;20026;-78
2023/06/24 01:02:37;;;;;;;2.92;1.90;;;;;;;;;;4967011;28;20026;-78
2023/06/24 01:05:05;;;;;;;2.70;1.67;;;;;;;;;;4969556;28;20061;-78
2023/06/24 01:07:32;;;;;;;1.85;1.63;;;;;;;;;;4968081;28;20065;-78
2023/06/24 01:10:00;;;;;;;1.75;1.40;;;;;;;;;;4962418;28;20541;-78
2023/06/24 01:12:26;;;;;;;2.95;2.38;;;;;;;;;;4964865;28;20478;-78
2023/06/24 01:14:52;;;;;;;3.33;1.80;;;;;;;;;;4970064;28;20092;-78
2023/06/24 01:17:24;;;;;;;2.90;1.70;;;;;;;;;;4970407;28;20129;-78
2023/06/24 01:19:55;;;;;;;3.30;1.67;;;;;;;;;;4968659;28;20030;-78
2023/06/24 01:22:31;;;;;;;2.28;1.70;;;;;;;;;;4967616;28;20037;-77
2023/06/24 01:25:06;;;;;;;2.25;1.45;;;;;;;;;;4969102;28;20023;-78
2023/06/24 01:27:38;;;;;;;2.63;1.52;;;;;;;;;;4967040;28;20037;-79
2023/06/24 01:30:29;;;;;;;2.03;1.48;;;;;;;;;;4962613;28;20383;-77
2023/06/24 01:32:57;;;;;;;2.03;1.60;;;;;;;;;;4968131;28;20035;-78
2023/06/24 01:35:26;;;;;;;2.17;1.65;;;;;;;;;;4980987;28;20058;-79
2023/06/24 01:37:53;;;;;;;2.72;1.55;;;;;;;;;;4972812;28;20042;-78
2023/06/24 01:40:23;;;;;;;2.38;1.77;;;;;;;;;;4973045;28;20086;-78
2023/06/24 01:42:49;;;;;;;1.50;1.40;;;;;;;;;;4972328;28;20139;-78
2023/06/24 01:45:22;;;;;;;3.13;1.70;;;;;;;;;;4972134;28;20029;-78
2023/06/24 01:47:49;;;;;;;1.45;1.35;;;;;;;;;;4972623;28;20161;-78
2023/06/24 01:50:17;;;;;;;2.92;2.00;;;;;;;;;;4969945;28;20062;-78
2023/06/24 01:52:44;;;;;;;2.53;1.70;;;;;;;;;;4973436;28;20138;-78
2023/06/24 01:55:11;;;;;;;1.98;1.50;;;;;;;;;;4971636;28;20031;-78
2023/06/24 01:57:37;;;;;;;2.70;2.00;;;;;;;;;;4970643;28;20344;-78
2023/06/24 02:00:07;;;;;;;2.50;1.67;;;;;;;;;;4972471;28;20027;-77
2023/06/24 02:02:33;;;;;;;4.20;2.10;;;;;;;;;;4973584;28;20027;-78
2023/06/24 02:05:01;;;;;;;2.58;1.77;;;;;;;;;;4971940;28;20402;-78
2023/06/24 02:07:29;;;;;;;2.00;1.42;;;;;;;;;;4971188;28;20062;-78
2023/06/24 02:09:55;;;;;;;2.15;1.70;;;;;;;;;;4972369;28;20544;-78
2023/06/24 02:12:22;;;;;;;2.75;1.77;;;;;;;;;;4972828;28;20038;-78
2023/06/24 02:14:49;;;;;;;2.65;1.95;;;;;;;;;;4972990;28;20041;-78
2023/06/24 02:17:15;;;;;;;1.70;1.23;;;;;;;;;;4970656;28;20117;-78
2023/06/24 02:19:42;;;;;;;5.25;1.80;;;;;;;;;;4970166;28;20035;-78
2023/06/24 02:22:09;;;;;;;2.25;1.55;;;;;;;;;;4973222;28;20027;-78
2023/06/24 02:24:35;;;;;;;2.00;1.75;;;;;;;;;;4969475;28;20466;-78
2023/06/24 02:27:02;;;;;;;2.28;1.73;;;;;;;;;;4973169;28;20125;-78
2023/06/24 02:29:28;;;;;;;2.60;1.65;;;;;;;;;;4970912;28;20051;-78
2023/06/24 02:31:55;;;;;;;1.90;1.50;;;;;;;;;;4972887;28;20031;-78
2023/06/24 02:34:21;;;;;;;1.60;1.50;;;;;;;;;;4971125;28;20034;-78
2023/06/24 02:36:47;;;;;;;2.28;1.75;;;;;;;;;;4972899;28;20039;-78
2023/06/24 02:39:13;;;;;;;2.20;1.60;;;;;;;;;;4971774;28;20037;-78
2023/06/24 02:41:39;;;;;;;2.20;1.70;;;;;;;;;;4967996;28;21564;-78
2023/06/24 02:44:05;;;;;;;2.75;1.52;;;;;;;;;;4968416;28;20141;-78
2023/06/24 02:46:33;;;;;;;3.03;1.95;;;;;;;;;;4972619;28;20102;-78
2023/06/24 02:49:00;;;;;;;1.95;1.58;;;;;;;;;;4972050;28;20054;-77
2023/06/24 02:51:26;;;;;;;2.60;1.98;;;;;;;;;;4971196;28;20062;-78
2023/06/24 02:53:53;;;;;;;2.42;1.50;;;;;;;;;;4972440;28;20489;-78
2023/06/24 02:56:20;;;;;;;2.78;1.52;;;;;;;;;;4969995;28;20038;-78
2023/06/24 02:58:47;;;;;;;2.45;1.90;;;;;;;;;;4969033;28;20113;-78
2023/06/24 03:01:13;;;;;;;3.45;1.83;;;;;;;;;;4969513;28;20023;-78
2023/06/24 03:03:39;;;;;;;2.17;1.85;;;;;;;;;;4972439;28;20019;-78
2023/06/24 03:06:05;;;;;;;1.92;1.65;;;;;;;;;;4970501;28;20051;-77
2023/06/24 03:08:31;;;;;;;2.13;1.70;;;;;;;;;;4968798;28;20171;-83
2023/06/24 03:10:58;;;;;;;2.03;1.70;;;;;;;;;;4969505;28;20643;-84
2023/06/24 03:13:24;;;;;;;1.75;1.50;;;;;;;;;;4953287;28;20027;-84
2023/06/24 03:15:50;;;;;;;2.10;1.75;;;;;;;;;;4963734;28;20073;-84
2023/06/24 03:18:17;;;;;;;2.22;1.83;;;;;;;;;;4972504;28;20046;-84
2023/06/24 03:20:44;;;;;;;2.33;1.83;;;;;;;;;;4971558;28;20054;-84
2023/06/24 03:23:10;;;;;;;1.95;1.50;;;;;;;;;;4971193;28;20516;-84
2023/06/24 03:25:36;;;;;;;2.47;1.83;;;;;;;;;;4972049;28;20114;-85
2023/06/24 03:28:07;;;;;;;2.88;2.10;;;;;;;;;;4971879;28;20041;-84
2023/06/24 03:30:33;;;;;;;2.50;1.40;;;;;;;;;;4971957;28;20135;-85
2023/06/24 03:32:59;;;;;;;3.10;1.48;;;;;;;;;;4971266;28;20110;-84
2023/06/24 03:35:25;;;;;;;3.03;1.75;;;;;;;;;;4972226;28;20031;-85
2023/06/24 03:37:51;;;;;;;2.78;1.60;;;;;;;;;;4968623;28;20891;-85
2023/06/24 03:40:17;;;;;;;1.92;1.40;;;;;;;;;;4971389;28;20086;-85
2023/06/24 03:42:43;;;;;;;2.00;1.50;;;;;;;;;;4965626;28;20089;-86
2023/06/24 03:45:09;;;;;;;2.10;1.65;;;;;;;;;;4971796;28;20046;-86
2023/06/24 03:47:35;;;;;;;2.45;2.03;;;;;;;;;;4969645;28;20125;-85
2023/06/24 03:50:01;;;;;;;2.53;1.63;;;;;;;;;;4970393;28;20027;-85
2023/06/24 03:52:27;;;;;;;1.65;1.52;;;;;;;;;;4971316;28;20101;-84
2023/06/24 03:54:53;;;;;;;2.30;1.65;;;;;;;;;;4971134;28;20456;-84
2023/06/24 03:57:20;;;;;;;1.90;1.70;;;;;;;;;;4970097;28;20038;-84
2023/06/24 03:59:46;;;;;;;5.28;1.80;;;;;;;;;;4968088;28;20027;-84
2023/06/24 04:02:13;;;;;;;2.03;1.58;;;;;;;;;;4970707;28;20046;-85
2023/06/24 04:04:39;;;;;;;2.67;1.65;;;;;;;;;;4971280;28;20126;-85
2023/06/24 04:07:05;;;;;;;2.05;1.75;;;;;;;;;;4971487;28;20082;-85
2023/06/24 04:09:38;;;;;;;2.30;1.63;;;;;;;;;;4968992;28;20035;-84
2023/06/24 04:12:04;;;;;;;2.63;1.73;;;;;;;;;;4968842;28;20076;-84
2023/06/24 04:14:30;;;;;;;1.83;1.63;;;;;;;;;;4971167;28;20031;-84
2023/06/24 04:16:56;;;;;;;2.67;2.15;;;;;;;;;;4968609;28;20532;-84
2023/06/24 04:19:22;;;;;;;3.10;2.03;;;;;;;;;;4968973;28;20043;-84
2023/06/24 04:21:48;;;;;;;2.05;1.60;;;;;;;;;;4970190;28;20479;-84
2023/06/24 04:24:14;;;;;;;2.28;1.50;;;;;;;;;;4970376;28;20018;-85
2023/06/24 04:26:40;;;;;;;3.10;1.60;;;;;;;;;;4969815;28;20295;-83
2023/06/24 04:29:06;;;;;;;3.50;1.75;;;;;;;;;;4970927;28;20030;-83
2023/06/24 04:31:32;;;;;;;2.22;1.92;;;;;;;;;;4970929;28;20114;-84
2023/06/24 04:33:58;;;;;;;2.08;1.55;;;;;;;;;;4969900;28;20133;-84
2023/06/24 04:36:24;;;;;;;2.65;1.95;;;;;;;;;;4968398;28;20141;-83
2023/06/24 04:38:50;;;;;;;2.30;1.77;;;;;;;;;;4967578;28;20031;-84
2023/06/24 04:41:18;;;;;;;2.75;1.48;;;;;;;;;;4970799;28;20434;-83
2023/06/24 04:43:44;;;;;;;3.20;1.98;;;;;;;;;;4969860;28;20038;-84
2023/06/24 04:46:10;;;;;;;5.30;2.05;;;;;;;;;;4971033;28;20030;-83
2023/06/24 04:48:36;;;;;;;2.25;1.80;;;;;;;;;;4968398;28;20030;-84
2023/06/24 04:51:02;;;;;;;2.72;1.92;;;;;;;;;;4969605;28;20038;-84
2023/06/24 04:53:29;;;;;;;2.70;1.95;;;;;;;;;;4967462;28;20049;-84
2023/06/24 04:55:55;;;;;;;2.45;1.80;;;;;;;;;;4970599;28;20031;-84
2023/06/24 04:58:21;;;;;;;2.78;1.70;;;;;;;;;;4967915;28;20394;-83
2023/06/24 05:00:47;;;;;;;3.72;2.13;;;;;;;;;;4969395;28;20038;-84
2023/06/24 05:03:13;;;;;;;2.42;1.75;;;;;;;;;;4967822;28;20042;-83
2023/06/24 05:05:39;;;;;;;2.30;1.90;;;;;;;;;;4969670;28;20080;-84
2023/06/24 05:08:05;;;;;;;2.83;1.70;;;;;;;;;;4968867;28;20034;-84
2023/06/24 05:10:30;;;;;;;2.30;1.70;;;;;;;;;;4969528;28;20089;-83
2023/06/24 05:12:56;;;;;;;2.15;1.42;;;;;;;;;;4969406;28;20043;-83
2023/06/24 05:15:22;;;;;;;2.05;1.52;;;;;;;;;;4966750;28;20031;-83
2023/06/24 05:17:48;;;;;;;1.85;1.58;;;;;;;;;;4966835;28;20076;-83
2023/06/24 05:20:15;;;;;;;2.58;1.80;;;;;;;;;;4969347;28;20027;-82
2023/06/24 05:22:40;;;;;;;2.33;1.98;;;;;;;;;;4965156;28;20023;-82
2023/06/24 05:25:07;;;;;;;3.33;2.10;;;;;;;;;;4969817;28;20421;-84
2023/06/24 05:27:33;;;;;;;1.73;1.42;;;;;;;;;;4969272;28;20102;-84
2023/06/24 05:29:59;;;;;;;4.25;2.08;;;;;;;;;;4969091;28;20403;-83
2023/06/24 05:32:24;;;;;;;1.90;1.27;;;;;;;;;;4966440;28;20027;-83
2023/06/24 05:34:50;;;;;;;2.20;1.50;;;;;;;;;;4969739;28;20386;-83
2023/06/24 05:37:16;;;;;;;4.03;2.20;;;;;;;;;;4967777;28;20027;-83
2023/06/24 05:39:42;;;;;;;3.33;1.48;;;;;;;;;;4968247;28;20031;-82
2023/06/24 05:42:08;;;;;;;3.10;1.83;;;;;;;;;;4970219;28;20077;-82
2023/06/24 05:44:34;;;;;;;3.45;2.28;;;;;;;;;;4967581;28;20466;-82
2023/06/24 05:47:00;;;;;;;2.17;1.50;;;;;;;;;;4966525;28;20050;-85
2023/06/24 05:49:26;;;;;;;2.85;1.73;;;;;;;;;;4965199;28;20030;-82
2023/06/24 05:51:52;;;;;;;2.03;1.48;;;;;;;;;;4970114;28;20023;-82
2023/06/24 05:54:18;;;;;;;2.15;1.75;;;;;;;;;;4969397;28;20027;-82
2023/06/24 05:56:44;;;;;;;1.83;1.50;;;;;;;;;;4970144;28;20470;-82
2023/06/24 05:59:10;;;;;;;2.17;1.63;;;;;;;;;;4968817;28;20038;-82
2023/06/24 06:01:36;;;;;;;1.90;1.60;;;;;;;;;;4969455;28;20031;-81
2023/06/24 06:04:02;;;;;;;2.17;1.48;;;;;;;;;;4968401;28;20035;-84
2023/06/24 06:06:28;;;;;;;5.75;2.63;;;;;;;;;;4970134;28;20023;-85
2023/06/24 06:08:54;;;;;;;1.63;1.33;;;;;;;;;;4965818;28;20030;-84
2023/06/24 06:11:20;;;;;;;2.53;1.75;;;;;;;;;;4968487;28;20544;-79
2023/06/24 06:13:46;;;;;;;1.70;1.27;;;;;;;;;;4969321;28;20034;-90
2023/06/24 06:16:12;;;;;;;2.33;1.77;;;;;;;;;;4967475;28;20026;-79
2023/06/24 06:18:38;;;;;;;3.90;1.85;;;;;;;;;;4971616;28;20026;-79
2023/06/24 06:21:04;;;;;;;3.13;2.03;;;;;;;;;;4970527;28;20647;-79
2023/06/24 06:23:30;;;;;;;2.22;1.63;;;;;;;;;;4972783;28;20041;-79
2023/06/24 06:25:56;;;;;;;2.05;1.80;;;;;;;;;;4972409;28;20474;-79
2023/06/24 06:28:22;;;;;;;2.67;1.73;;;;;;;;;;4972663;28;20077;-79
2023/06/24 06:30:48;;;;;;;2.35;1.45;;;;;;;;;;4971125;28;20031;-79
2023/06/24 06:33:14;;;;;;;1.95;1.70;;;;;;;;;;4972858;28;20038;-79
2023/06/24 06:35:40;;;;;;;6.20;2.05;;;;;;;;;;4972564;28;20502;-79
2023/06/24 06:38:06;;;;;;;2.63;2.08;;;;;;;;;;4973094;28;20030;-79
2023/06/24 06:40:32;;;;;;;4.13;1.70;;;;;;;;;;4968126;28;20074;-79
2023/06/24 06:42:58;;;;;;;1.73;1.40;;;;;;;;;;4973736;28;20029;-79
2023/06/24 06:45:24;;;;;;;4.72;2.33;;;;;;;;;;4973173;28;20385;-79
2023/06/24 06:47:50;;;;;;;1.50;1.33;;;;;;;;;;4972045;28;20038;-79
2023/06/24 06:50:16;;;;;;;4.38;1.80;;;;;;;;;;4967477;28;20027;-79
2023/06/24 06:52:42;;;;;;;2.78;1.80;;;;;;;;;;4966397;28;20029;-79
2023/06/24 06:55:08;;;;;;;2.42;1.60;;;;;;;;;;4964412;28;20019;-79
2023/06/24 06:57:34;;;;;;;3.63;1.98;;;;;;;;;;4970705;28;20102;-78
2023/06/24 07:00:00;;;;;;;3.50;1.55;;;;;;;;;;4962698;28;20723;-78
2023/06/24 07:02:26;;;;;;;3.08;1.75;;;;;;;;;;4966826;28;20449;-78
2023/06/24 07:04:52;;;;;;;2.83;1.52;;;;;;;;;;4971019;28;20070;-78
2023/06/24 07:07:18;;;;;;;2.72;1.77;;;;;;;;;;4970217;28;20030;-89
2023/06/24 07:09:46;;;;;;;3.15;2.25;;;;;;;;;;4971825;28;20078;-81
2023/06/24 07:12:13;;;;;;;4.25;1.50;;;;;;;;;;4968685;28;20031;-81
2023/06/24 07:14:39;;;;;;;3.78;1.60;;;;;;;;;;4969107;28;20113;-83
2023/06/24 07:17:05;;;;;;;3.30;1.77;;;;;;;;;;4970595;28;20669;-81
2023/06/24 07:19:31;;;;;;;2.70;2.03;;;;;;;;;;4968683;28;20033;-83
2023/06/24 07:21:57;;;;;;;2.92;2.00;;;;;;;;;;4970417;28;20031;-77
2023/06/24 07:24:23;;;;;;;3.75;2.20;;;;;;;;;;4970055;28;20781;-78
2023/06/24 07:26:49;;;;;;;2.30;1.58;;;;;;;;;;4968905;28;20482;-78
2023/06/24 07:29:15;;;;;;;4.30;1.92;;;;;;;;;;4967846;28;20575;-79
2023/06/24 07:31:41;;;;;;;2.85;1.80;;;;;;;;;;4972261;28;20449;-79
2023/06/24 07:34:07;;;;;;;2.67;1.95;;;;;;;;;;4972401;28;20035;-78
2023/06/24 07:36:33;;;;;;;2.50;1.92;;;;;;;;;;4967642;28;20061;-79
2023/06/24 07:38:59;;;;;;;3.13;2.00;;;;;;;;;;4966433;28;20023;-79
2023/06/24 07:41:25;;;;;;;2.20;1.70;;;;;;;;;;4971631;28;20023;-78
2023/06/24 07:43:51;;;;;;;2.75;1.80;;;;;;;;;;4968088;28;20022;-80
2023/06/24 07:46:17;;;;;;;4.45;2.08;;;;;;;;;;4969550;28;20041;-81
2023/06/24 07:48:44;;;;;;;2.03;1.50;;;;;;;;;;4962061;28;20030;-79
2023/06/24 07:51:09;;;;;;;3.55;2.45;;;;;;;;;;4968207;28;20034;-80
2023/06/24 07:53:36;;;;;;;3.33;1.67;;;;;;;;;;4959146;28;20114;-79
2023/06/24 07:56:02;;;;;;;2.63;1.52;;;;;;;;;;4966955;28;20202;-80
2023/06/24 07:58:28;;;;;;;2.13;1.60;;;;;;;;;;4968125;28;20026;-79
2023/06/24 08:00:53;;;;;;;2.33;1.90;;;;;;;;;;4970670;28;20038;-81
2023/06/24 08:03:21;;;;;;;2.63;1.60;;;;;;;;;;4970058;28;20023;-83
2023/06/24 08:05:49;;;;;;;1.42;1.27;;;;;;;;;;4968441;28;20046;-79
2023/06/24 08:08:15;;;;;;;3.25;1.80;;;;;;;;;;4966922;28;20031;-80
2023/06/24 08:10:41;;;;;;;5.55;1.85;;;;;;;;;;4967440;28;20031;-82
2023/06/24 08:13:07;;;;;;;1.52;1.35;;;;;;;;;;4970151;28;20030;-82
2023/06/24 08:15:33;;;;;;;3.30;2.13;;;;;;;;;;4969738;28;20067;-80
2023/06/24 08:17:59;;;;;;;3.03;1.88;;;;;;;;;;4963469;28;20033;-80
2023/06/24 08:20:25;;;;;;;3.85;1.88;;;;;;;;;;4967540;28;20015;-83
2023/06/24 08:22:54;;;;;;;2.22;1.70;;;;;;;;;;4968738;28;20111;-79
2023/06/24 08:25:20;;;;;;;2.38;1.90;;;;;;;;;;4967394;28;20074;-80
2023/06/24 08:27:46;;;;;;;2.90;1.98;;;;;;;;;;4964348;28;20024;-79
2023/06/24 08:30:13;;;;;;;6.82;1.90;;;;;;;;;;4959404;28;20823;-79
2023/06/24 08:32:40;;;;;;;2.90;2.03;;;;;;;;;;4968363;28;20184;-76
2023/06/24 08:35:06;;;;;;;1.98;1.38;;;;;;;;;;4963877;28;20634;-83
2023/06/24 08:37:32;;;;;;;2.13;1.63;;;;;;;;;;4965990;28;20602;-81
2023/06/24 08:39:58;;;;;;;2.17;1.48;;;;;;;;;;4965740;28;20026;-80
2023/06/24 08:42:24;;;;;;;1.90;1.48;;;;;;;;;;4968329;28;20027;-86
2023/06/24 08:44:50;;;;;;;2.47;1.50;;;;;;;;;;4963705;28;20033;-79
2023/06/24 08:47:17;;;;;;;1.58;1.45;;;;;;;;;;4963063;28;20039;-80
2023/06/24 08:49:55;;;;;;;2.45;1.52;;;;;;;;;;4967962;28;20421;-81
2023/06/24 08:52:22;;;;;;;3.40;1.80;;;;;;;;;;4966089;28;20029;-82
2023/06/24 08:54:51;;;;;;;2.35;1.58;;;;;;;;;;4968126;28;20524;-79
2023/06/24 08:57:18;;;;;;;2.10;1.63;;;;;;;;;;4967157;28;20031;-79
2023/06/24 08:59:44;;;;;;;3.10;1.60;;;;;;;;;;4963410;28;20023;-80
2023/06/24 09:02:11;;;;;;;2.47;1.85;;;;;;;;;;4965677;28;20023;-77
2023/06/24 09:04:37;;;;;;;2.75;1.63;;;;;;;;;;4967599;28;20074;-78
2023/06/24 09:07:03;;;;;;;2.42;1.70;;;;;;;;;;4964192;28;20118;-78
2023/06/24 09:09:29;;;;;;;4.93;1.70;;;;;;;;;;4967679;28;20541;-78
2023/06/24 09:11:56;;;;;;;2.45;1.50;;;;;;;;;;4969417;28;20077;-78
2023/06/24 09:14:23;;;;;;;3.17;1.95;;;;;;;;;;4966902;28;20486;-78
2023/06/24 09:16:52;;;;;;;2.47;1.90;;;;;;;;;;4967454;28;20042;-77
2023/06/24 09:19:28;;;;;;;1.80;1.52;;;;;;;;;;4967403;28;20221;-79
2023/06/24 09:21:54;;;;;;;2.60;1.50;;;;;;;;;;4958658;28;20027;-79
2023/06/24 09:24:20;;;;;;;2.65;1.45;;;;;;;;;;4962572;28;20085;-79
2023/06/24 09:26:46;;;;;;;2.45;1.77;;;;;;;;;;4964173;28;20912;-80
2023/06/24 09:29:15;;;;;;;2.47;1.55;;;;;;;;;;4969414;28;20039;-76
2023/06/24 09:31:52;;;;;;;2.15;1.30;;;;;;;;;;4968404;28;20054;-77
2023/06/24 09:34:19;;;;;;;2.53;1.33;;;;;;;;;;4967487;28;20034;-77
2023/06/24 09:36:45;;;;;;;1.90;1.70;;;;;;;;;;4967500;28;20031;-76
2023/06/24 09:39:11;;;;;;;2.17;1.70;;;;;;;;;;4968960;28;20566;-76
2023/06/24 09:41:41;;;;;;;1.98;1.40;;;;;;;;;;4967715;28;20027;-77
2023/06/24 09:44:14;;;;;;;2.35;1.55;;;;;;;;;;4965378;28;20098;-77
2023/06/24 09:46:41;;;;;;;2.35;1.80;;;;;;;;;;4968299;28;20066;-79
2023/06/24 09:49:07;;;;;;;4.35;2.15;;;;;;;;;;4964272;28;20038;-81
2023/06/24 09:51:37;;;;;;;3.67;1.83;;;;;;;;;;4967563;28;20030;-76
2023/06/24 09:54:06;;;;;;;2.10;1.80;;;;;;;;;;4968844;28;20035;-76
2023/06/24 09:56:33;;;;;;;2.83;1.80;;;;;;;;;;4969095;28;20035;-74
2023/06/24 09:58:59;;;;;;;3.28;1.75;;;;;;;;;;4971053;28;20027;-77
2023/06/24 10:01:26;;;;;;;2.15;1.60;;;;;;;;;;4970081;28;20038;-76
2023/06/24 10:03:52;;;;;;;1.40;1.30;;;;;;;;;;4973128;28;20478;-85
2023/06/24 10:06:18;;;;;;;1.48;1.38;;;;;;;;;;4970011;28;20041;-77
2023/06/24 10:08:44;;;;;;;4.00;1.85;;;;;;;;;;4969412;28;20035;-83
2023/06/24 10:11:10;;;;;;;1.98;1.42;;;;;;;;;;4971943;28;20039;-80
2023/06/24 10:13:36;;;;;;;2.38;1.73;;;;;;;;;;4970490;28;20118;-83
2023/06/24 10:16:03;;;;;;;1.98;1.38;;;;;;;;;;4968131;28;20525;-80
2023/06/24 10:18:29;;;;;;;3.47;1.65;;;;;;;;;;4969436;28;20154;-81
2023/06/24 10:20:55;;;;;;;2.05;1.70;;;;;;;;;;4972149;28;20502;-83
2023/06/24 10:23:21;;;;;;;1.73;1.33;;;;;;;;;;4969519;28;20162;-81
2023/06/24 10:25:48;;;;;;;2.70;2.05;;;;;;;;;;4969194;28;20035;-77
2023/06/24 10:28:14;;;;;;;2.92;1.85;;;;;;;;;;4967371;28;20125;-80
2023/06/24 10:30:40;;;;;;;2.10;1.70;;;;;;;;;;4969257;28;20173;-80
2023/06/24 10:33:10;;;;;;;4.22;1.80;;;;;;;;;;4969920;28;20039;-80
2023/06/24 10:35:43;;;;;;;1.55;1.42;;;;;;;;;;4971353;28;20034;-81
2023/06/24 10:38:11;;;;;;;3.03;1.98;;;;;;;;;;4972679;28;20035;-78
2023/06/24 10:40:37;;;;;;;3.25;1.52;;;;;;;;;;4968789;28;20054;-78
2023/06/24 10:43:23;;;;;;;2.75;1.83;;;;;;;;;;4970386;28;20023;-77
2023/06/24 10:45:53;;;;;;;2.25;1.50;;;;;;;;;;4972402;28;20061;-80
2023/06/24 10:48:20;;;;;;;2.28;1.77;;;;;;;;;;4966769;28;20043;-83
2023/06/24 10:50:49;;;;;;;1.88;1.38;;;;;;;;;;4969299;28;20030;-90
2023/06/24 10:53:18;;;;;;;4.40;1.70;;;;;;;;;;4970143;28;20453;-86
2023/06/24 10:55:44;;;;;;;3.65;1.92;;;;;;;;;;4968951;28;20054;-94
2023/06/24 10:58:15;;;;;;;1.98;1.70;;;;;;;;;;4983113;28;20081;-82
2023/06/24 11:00:41;;;;;;;3.07;1.90;;;;;;;;;;4967107;28;20081;-77
2023/06/24 11:03:10;;;;;;;2.13;1.65;;;;;;;;;;4967374;28;20333;-78
2023/06/24 11:05:39;;;;;;;4.13;1.70;;;;;;;;;;4969745;28;20089;-76
2023/06/24 11:08:06;;;;;;;1.88;1.67;;;;;;;;;;4968255;28;20054;-76
2023/06/24 11:10:49;;;;;;;3.70;2.10;;;;;;;;;;4969233;28;20482;-88
2023/06/24 11:13:21;;;;;;;2.33;2.03;;;;;;;;;;4968486;28;20034;-85
2023/06/24 11:15:47;;;;;;;1.75;1.63;;;;;;;;;;4969486;28;20027;-82
2023/06/24 11:18:12;;;;;;;2.47;1.65;;;;;;;;;;4969143;28;20047;-78
2023/06/24 11:20:39;;;;;;;3.20;2.20;;;;;;;;;;4970791;28;20046;-79
2023/06/24 11:23:09;;;;;;;2.85;1.88;;;;;;;;;;4969088;28;20334;-79
2023/06/24 11:25:39;;;;;;;2.10;1.77;;;;;;;;;;4968719;28;20102;-79
2023/06/24 11:28:05;;;;;;;2.40;2.00;;;;;;;;;;4960670;28;22534;-81
2023/06/24 11:30:34;;;;;;;4.57;2.00;;;;;;;;;;4964327;28;20052;-80
2023/06/24 11:33:02;;;;;;;2.28;1.70;;;;;;;;;;4978061;28;20034;-80
2023/06/24 11:35:29;;;;;;;2.35;1.70;;;;;;;;;;4975030;28;20031;-79
2023/06/24 11:37:58;;;;;;;2.75;1.75;;;;;;;;;;4975407;28;20035;-79
2023/06/24 11:40:27;;;;;;;2.53;1.90;;;;;;;;;;4977453;28;20039;-79
2023/06/24 11:42:53;;;;;;;3.40;1.80;;;;;;;;;;4979744;28;20874;-81
2023/06/24 11:45:22;;;;;;;2.58;1.83;;;;;;;;;;4978685;28;20029;-81
2023/06/24 11:47:49;;;;;;;2.67;2.00;;;;;;;;;;4976986;28;20422;-82
2023/06/24 11:50:33;;;;;;;2.00;1.58;;;;;;;;;;4976201;28;20023;-83
2023/06/24 11:53:08;;;;;;;2.28;1.55;;;;;;;;;;4980835;28;20094;-78
2023/06/24 11:55:34;;;;;;;1.70;1.45;;;;;;;;;;4968308;28;20041;-79
2023/06/24 11:58:06;;;;;;;2.55;1.55;;;;;;;;;;4965902;28;20018;-82
2023/06/24 12:00:35;;;;;;;2.67;1.88;;;;;;;;;;4968591;28;20562;-81
2023/06/24 12:03:02;;;;;;;3.00;1.90;;;;;;;;;;4968576;28;20050;-81
2023/06/24 12:05:29;;;;;;;3.58;2.60;;;;;;;;;;4965085;28;20046;-82
2023/06/24 12:07:56;;;;;;;3.08;1.67;;;;;;;;;;4970050;28;20019;-85
2023/06/24 12:10:35;;;;;;;2.22;1.92;;;;;;;;;;4967077;28;20195;-83
2023/06/24 12:13:01;;;;;;;1.90;1.70;;;;;;;;;;4969673;28;20081;-75
2023/06/24 12:15:27;;;;;;;2.33;1.80;;;;;;;;;;4958660;28;20494;-77
2023/06/24 12:17:54;;;;;;;3.33;1.80;;;;;;;;;;4961513;28;20469;-77
2023/06/24 12:20:20;;;;;;;2.50;1.80;;;;;;;;;;4966222;28;20472;-74
2023/06/24 12:22:47;;;;;;;2.13;1.73;;;;;;;;;;4964054;28;20209;-76
2023/06/24 12:25:13;;;;;;;1.60;1.50;;;;;;;;;;4970294;28;20045;-76
2023/06/24 12:27:42;;;;;;;2.75;1.58;;;;;;;;;;4966146;28;20651;-78
2023/06/24 12:30:09;;;;;;;1.70;1.58;;;;;;;;;;4968180;28;20050;-77
2023/06/24 12:32:35;;;;;;;2.28;1.60;;;;;;;;;;4969907;28;20042;-76
2023/06/24 12:35:02;;;;;;;4.28;1.83;;;;;;;;;;4971694;28;20776;-77
2023/06/24 12:37:32;;;;;;;4.75;1.60;;;;;;;;;;4968205;28;20402;-77
2023/06/24 12:39:58;;;;;;;1.65;1.55;;;;;;;;;;4968141;28;20040;-76
2023/06/24 12:42:24;;;;;;;1.80;1.70;;;;;;;;;;4968781;28;20030;-76
2023/06/24 12:44:50;;;;;;;2.88;1.95;;;;;;;;;;4965313;28;20398;-78
2023/06/24 12:47:16;;;;;;;2.55;2.03;;;;;;;;;;4965193;28;20086;-74
2023/06/24 12:49:42;;;;;;;1.98;1.77;;;;;;;;;;4969236;28;20100;-75
2023/06/24 12:52:08;;;;;;;2.22;1.60;;;;;;;;;;4959702;28;20047;-77
2023/06/24 12:54:34;;;;;;;2.03;1.58;;;;;;;;;;4968861;28;20061;-76
2023/06/24 12:57:01;;;;;;;2.78;1.77;;;;;;;;;;4968269;28;20031;-74
2023/06/24 12:59:27;;;;;;;3.15;2.17;;;;;;;;;;4971132;28;20038;-76
2023/06/24 13:01:53;;;;;;;8.07;2.00;;;;;;;;;;4967766;28;20253;-77
2023/06/24 13:04:23;;;;;;;1.48;1.23;;;;;;;;;;4968435;28;20061;-79
2023/06/24 13:06:49;;;;;;;3.42;2.00;;;;;;;;;;4967386;28;20039;-76
2023/06/24 13:09:15;;;;;;;2.70;1.92;;;;;;;;;;4964718;28;20046;-77
2023/06/24 13:11:42;;;;;;;1.95;1.75;;;;;;;;;;4961479;28;20435;-76
2023/06/24 13:14:09;;;;;;;2.90;2.17;;;;;;;;;;4966195;28;20046;-76
2023/06/24 13:16:35;;;;;;;5.38;2.92;;;;;;;;;;4965601;28;20105;-77
2023/06/24 13:19:02;;;;;;;5.97;2.95;;;;;;;;;;4967283;28;20049;-74
2023/06/24 13:21:28;;;;;;;5.10;3.10;;;;;;;;;;4967958;28;20389;-78
2023/06/24 13:23:54;;;;;;;3.90;2.65;;;;;;;;;;4967889;28;20026;-76
2023/06/24 13:26:20;;;;;;;5.30;2.58;;;;;;;;;;4965843;28;20085;-74
2023/06/24 13:28:46;;;;;;;3.13;2.50;;;;;;;;;;4962127;28;20461;-77
2023/06/24 13:31:12;;;;;;;5.50;3.30;;;;;;;;;;4962065;28;20328;-75
2023/06/24 13:33:38;;;;;;;5.65;3.80;;;;;;;;;;4961027;28;20045;-76
2023/06/24 13:36:05;;;;;;;6.30;3.78;;;;;;;;;;4966329;28;20046;-81
2023/06/24 13:38:32;;;;;;;3.33;2.75;;;;;;;;;;4965725;28;20038;-78
2023/06/24 13:40:58;;;;;;;5.70;3.05;;;;;;;;;;4966949;28;20091;-84
2023/06/24 13:43:24;;;;;;;4.22;3.08;;;;;;;;;;4965816;28;20038;-80
2023/06/24 13:45:50;;;;;;;6.80;3.20;;;;;;;;;;4961229;28;20113;-86
2023/06/24 13:48:16;;;;;;;4.40;3.00;;;;;;;;;;4962880;28;20035;-75
2023/06/24 13:50:42;;;;;;;9.07;3.47;;;;;;;;;;4961005;28;20085;-77
2023/06/24 13:53:08;;;;;;;5.80;3.30;;;;;;;;;;4966926;28;20039;-78
2023/06/24 13:55:36;;;;;;;6.72;3.42;;;;;;;;;;4963101;28;20027;-77
2023/06/24 13:58:01;;;;;;;11.07;5.32;;;;;;;;;;4965436;28;20081;-76
2023/06/24 14:00:27;;;;;;;7.57;4.22;;;;;;;;;;4966682;28;20442;-79
2023/06/24 14:02:54;;;;;;;9.48;5.25;;;;;;;;;;4966654;28;20049;-77
2023/06/24 14:05:20;;;;;;;7.47;4.78;;;;;;;;;;4964426;28;20047;-78
2023/06/24 14:07:45;;;;;;;10.13;4.07;;;;;;;;;;4965747;28;20054;-77
2023/06/24 14:10:11;;;;;;;4.97;3.28;;;;;;;;;;4967075;28;20553;-77
2023/06/24 14:12:37;;;;;;;5.00;2.92;;;;;;;;;;4966990;28;21420;-79
2023/06/24 14:15:04;;;;;;;4.05;2.90;;;;;;;;;;4966384;28;20039;-78
2023/06/24 14:17:30;;;;;;;3.60;2.58;;;;;;;;;;4967160;28;20107;-78
2023/06/24 14:19:56;;;;;;;3.60;2.47;;;;;;;;;;4967882;28;20039;-77
2023/06/24 14:22:22;;;;;;;4.70;2.40;;;;;;;;;;4967487;28;20027;-78
2023/06/24 14:24:48;;;;;;;3.42;2.42;;;;;;;;;;4965707;28;20102;-79
2023/06/24 14:27:14;;;;;;;3.20;2.28;;;;;;;;;;4968137;28;20032;-79
2023/06/24 14:29:40;;;;;;;2.58;2.10;;;;;;;;;;4967277;28;20035;-78
2023/06/24 14:32:06;;;;;;;4.18;2.28;;;;;;;;;;4967332;28;20125;-78
2023/06/24 14:34:33;;;;;;;4.25;2.70;;;;;;;;;;4956329;28;20546;-77
2023/06/24 14:36:59;;;;;;;9.27;4.22;;;;;;;;;;4960140;28;20449;-77
2023/06/24 14:39:25;;;;;;;10.52;4.25;;;;;;;;;;4969487;28;20073;-77
2023/06/24 14:41:50;;;;;;;10.02;3.80;;;;;;;;;;4966847;28;20019;-78